Ana Sayfa
METAR-TAF:

METAR-TAF

Havaalanları :

Rock Hill/York County Airport (Bryant Field)

Rock Hill, Güney Carolina, Amerika Birleşik Devletleri

Enlem: 34-59-02N, Boylam: 081-03-21W, yükseklik: 204 m

Güncel hava durumu gözlemi

Rapor saat 09:14 UTC de 16 dakika önce yapıldı.
Rüzgar doğu/kuzeydoğudan 4 kt
Sıcaklık 20°C
Nem 94%
Basınç 1019 hPa
Görüş mesafesi: 9.7 km
400 ft yükseklikte çok bulutlu
Pus

METAR: KUZA 250914Z AUTO 06004KT 6SM BR OVC004 20/19 A3010 RMK AO2 T02000189

Saat: 05:30 (09:30 UTC)


TAF: eksik

4.000'den fazla havaalanı için hava durumu gözlemleri ve tahminleri (METAR ve TAF raporları).

Kullanılabilir istasyonlar harita üzerinde sarı ve kırmızı noktalarla gösterilir.

İstasyonun adını görmek için fareyi noktanın üzerinde gezdirin.

Sonrasında hava gözlem ve tahminlerini görmek için tıklayın.

Haritayı değiştirmek için: yaklaştırmak için siyah artı işaretli yeşil düğmeye ve uzaklaştırmak için de eksi işaretli düğmeye hızla tıklayın; bitişik haritalar için yeşil okları kullanın.


METAR-TAF: